createdAt,value
2019-05-02T00:01:31.359Z,22.64
2019-05-02T00:04:04.804Z,22.47
2019-05-02T00:06:42.935Z,22.40
2019-05-02T00:09:13.150Z,22.38
2019-05-02T00:11:58.240Z,22.32
2019-05-02T00:14:21.913Z,22.35
2019-05-02T00:16:55.372Z,22.31
2019-05-02T00:19:28.732Z,22.29
2019-05-02T00:22:02.096Z,22.29
2019-05-02T00:24:39.387Z,22.31
2019-05-02T00:27:10.449Z,22.28
2019-05-02T00:29:43.838Z,22.24
2019-05-02T00:32:22.467Z,22.23
2019-05-02T00:34:53.924Z,22.26
2019-05-02T00:37:29.066Z,22.23
2019-05-02T00:40:03.701Z,22.22
2019-05-02T00:42:37.171Z,22.47
2019-05-02T00:45:10.476Z,22.32
2019-05-02T00:47:47.850Z,22.29
2019-05-02T00:50:19.912Z,22.27
2019-05-02T00:52:53.254Z,22.25
2019-05-02T00:55:28.971Z,22.24
2019-05-02T00:58:01.638Z,22.18
2019-05-02T01:00:35.144Z,22.18
2019-05-02T01:03:11.234Z,22.41
2019-05-02T01:05:43.677Z,22.27
2019-05-02T01:08:17.317Z,22.22
2019-05-02T01:10:52.183Z,22.15
2019-05-02T01:13:26.470Z,22.12
2019-05-02T01:15:59.894Z,22.09
2019-05-02T01:18:37.279Z,22.07
2019-05-02T01:21:08.473Z,22.05
2019-05-02T01:23:43.377Z,22.02
2019-05-02T01:26:16.932Z,22.05
2019-05-02T01:28:54.385Z,22.03
2019-05-02T01:31:27.163Z,22.03
2019-05-02T01:34:00.525Z,21.99
2019-05-02T01:36:36.711Z,22.09
2019-05-02T01:39:08.929Z,21.98
2019-05-02T01:41:42.280Z,21.98
2019-05-02T01:44:15.589Z,21.94
2019-05-02T01:46:49.180Z,22.10
2019-05-02T01:49:23.176Z,21.99
2019-05-02T01:51:56.665Z,22.00
2019-05-02T01:54:29.985Z,21.89
2019-05-02T01:57:03.950Z,21.85
2019-05-02T01:59:39.535Z,21.85
2019-05-02T02:02:12.938Z,21.82
2019-05-02T02:04:47.333Z,21.80
2019-05-02T02:07:21.247Z,21.96
2019-05-02T02:09:55.371Z,21.85
2019-05-02T02:12:29.777Z,21.93
2019-05-02T02:15:04.270Z,21.85
2019-05-02T02:17:37.820Z,22.04
2019-05-02T02:20:14.018Z,21.87
2019-05-02T02:22:46.204Z,21.95
2019-05-02T02:25:24.655Z,21.80
2019-05-02T02:27:59.719Z,22.01
2019-05-02T02:30:34.343Z,21.86
2019-05-02T02:33:09.446Z,21.74
2019-05-02T02:35:49.806Z,21.75
2019-05-02T02:38:17.861Z,21.71
2019-05-02T02:40:51.237Z,21.67
2019-05-02T02:43:34.338Z,21.64
2019-05-02T02:46:00.892Z,21.64
2019-05-02T02:48:40.490Z,21.57
2019-05-02T02:51:09.232Z,21.58
2019-05-02T02:53:42.599Z,21.56
2019-05-02T02:56:16.066Z,21.66
2019-05-02T02:58:49.604Z,21.59
2019-05-02T03:01:29.101Z,21.61
2019-05-02T03:04:01.949Z,21.58
2019-05-02T03:06:38.460Z,21.67
2019-05-02T03:09:10.031Z,21.57
2019-05-02T03:11:43.325Z,21.55
2019-05-02T03:14:16.686Z,21.54
2019-05-02T03:16:51.079Z,21.71
2019-05-02T03:19:25.540Z,21.57
2019-05-02T03:22:03.754Z,21.53
2019-05-02T03:24:43.160Z,21.50
2019-05-02T03:27:11.470Z,21.69
2019-05-02T03:29:46.634Z,21.56
2019-05-02T03:32:31.904Z,21.71
2019-05-02T03:34:54.964Z,21.65
2019-05-02T03:37:28.265Z,21.67
2019-05-02T03:40:01.844Z,21.69
2019-05-02T03:42:43.700Z,22.03
2019-05-02T03:45:10.195Z,21.93
2019-05-02T03:47:46.478Z,21.93
2019-05-02T03:50:31.286Z,22.02
2019-05-02T03:52:53.547Z,22.16
2019-05-02T03:55:30.867Z,22.36
2019-05-02T03:58:13.470Z,22.55
2019-05-02T04:00:38.632Z,22.72
2019-05-02T04:03:12.140Z,22.88
2019-05-02T04:05:46.923Z,23.05
2019-05-02T04:08:22.749Z,23.18
2019-05-02T04:11:14.550Z,23.53
2019-05-02T04:13:48.216Z,23.60
2019-05-02T04:16:21.849Z,23.72
2019-05-02T04:18:57.849Z,23.83
2019-05-02T04:21:30.213Z,24.23
2019-05-02T04:24:12.935Z,24.09
2019-05-02T04:26:39.437Z,24.54
2019-05-02T04:29:12.784Z,24.29
2019-05-02T04:31:46.490Z,24.22
2019-05-02T04:34:19.802Z,24.22
2019-05-02T04:37:01.299Z,24.14
2019-05-02T04:39:29.627Z,24.19
2019-05-02T04:42:05.189Z,24.18
2019-05-02T04:44:44.595Z,24.26
2019-05-02T04:47:17.460Z,24.18
2019-05-02T04:49:51.987Z,24.20
2019-05-02T04:52:24.735Z,24.10
2019-05-02T04:55:11.257Z,24.05
2019-05-02T04:57:36.846Z,24.00
2019-05-02T05:00:11.770Z,23.98
2019-05-02T05:02:44.805Z,24.00
2019-05-02T05:05:25.676Z,24.25
2019-05-02T05:07:54.093Z,24.05
2019-05-02T05:10:27.862Z,24.25
2019-05-02T05:13:01.962Z,24.04
2019-05-02T05:15:44.832Z,24.35
2019-05-02T05:18:14.381Z,24.07
2019-05-02T05:20:52.748Z,24.34
2019-05-02T05:23:21.642Z,24.09
2019-05-02T05:26:02.934Z,23.98
2019-05-02T05:28:35.138Z,23.93
2019-05-02T05:31:08.259Z,23.89
2019-05-02T05:33:42.162Z,24.04
2019-05-02T05:36:19.794Z,23.92
2019-05-02T05:38:51.312Z,24.02
2019-05-02T05:41:24.709Z,23.78
2019-05-02T05:43:58.315Z,23.76
2019-05-02T05:46:33.518Z,23.71
2019-05-02T05:49:12.453Z,23.72
2019-05-02T05:51:43.411Z,23.72
2019-05-02T05:54:17.818Z,23.68
2019-05-02T05:56:51.502Z,23.61
2019-05-02T05:59:28.023Z,23.95
2019-05-02T06:02:00.376Z,23.78
2019-05-02T06:04:33.743Z,23.66
2019-05-02T06:07:07.387Z,23.63
2019-05-02T06:09:41.816Z,23.55
2019-05-02T06:12:15.265Z,23.68
2019-05-02T06:14:48.896Z,23.57
2019-05-02T06:17:28.523Z,23.63
2019-05-02T06:19:58.981Z,23.59
2019-05-02T06:22:32.664Z,23.78
2019-05-02T06:25:09.406Z,23.50
2019-05-02T06:27:42.146Z,23.48
2019-05-02T06:30:16.627Z,23.51
2019-05-02T06:32:54.792Z,23.88
2019-05-02T06:35:25.395Z,23.65
2019-05-02T06:37:58.765Z,23.77
2019-05-02T06:40:32.147Z,23.63
2019-05-02T06:43:09.579Z,23.93
2019-05-02T06:45:40.573Z,23.70
2019-05-02T06:48:17.635Z,23.92
2019-05-02T06:50:49.182Z,23.70
2019-05-02T06:53:22.585Z,23.64
2019-05-02T06:55:57.740Z,23.63
2019-05-02T06:58:37.168Z,23.61
2019-05-02T07:01:07.793Z,23.70
2019-05-02T07:03:45.908Z,23.61
2019-05-02T07:06:16.459Z,23.60
2019-05-02T07:08:49.900Z,23.60
2019-05-02T07:11:23.214Z,23.80
2019-05-02T07:13:56.586Z,23.72
2019-05-02T07:16:38.095Z,23.66
2019-05-02T07:19:05.054Z,23.71
2019-05-02T07:21:38.383Z,23.99
2019-05-02T07:24:11.736Z,23.86
2019-05-02T07:26:46.133Z,23.81
2019-05-02T07:29:21.915Z,23.83
2019-05-02T07:31:54.908Z,24.22
2019-05-02T07:34:28.287Z,23.99
2019-05-02T07:37:01.842Z,24.04
2019-05-02T07:39:36.063Z,24.03
2019-05-02T07:42:10.583Z,24.07
2019-05-02T07:44:44.248Z,24.09
2019-05-02T07:47:17.749Z,24.16
2019-05-02T07:49:51.368Z,24.33
2019-05-02T07:52:28.875Z,24.29
2019-05-02T07:55:01.210Z,24.29
2019-05-02T07:57:35.087Z,24.30
2019-05-02T08:00:12.202Z,24.59
2019-05-02T08:02:45.543Z,24.53
2019-05-02T08:05:21.680Z,24.52
2019-05-02T08:07:55.263Z,24.55
2019-05-02T08:10:28.847Z,24.49
2019-05-02T08:13:02.183Z,24.43
2019-05-02T08:15:35.569Z,24.47
2019-05-02T08:18:08.977Z,24.50
2019-05-02T08:20:42.294Z,24.81
2019-05-02T08:23:20.611Z,24.62
2019-05-02T08:25:50.921Z,24.50
2019-05-02T08:28:24.514Z,24.53
2019-05-02T08:30:58.455Z,24.56
2019-05-02T08:33:34.597Z,24.56
2019-05-02T08:36:07.252Z,24.86
2019-05-02T08:38:40.629Z,24.65
2019-05-02T08:41:19.978Z,24.55
2019-05-02T08:43:51.351Z,24.48
2019-05-02T08:46:24.662Z,24.40
2019-05-02T08:48:59.521Z,24.36
2019-05-02T08:51:33.089Z,24.35
2019-05-02T08:54:06.685Z,24.33
2019-05-02T08:56:39.992Z,24.32
2019-05-02T08:59:13.356Z,24.52
2019-05-02T09:01:49.490Z,24.02
2019-05-02T09:04:24.083Z,24.33
2019-05-02T09:06:58.865Z,24.28
2019-05-02T09:09:32.213Z,24.51
2019-05-02T09:12:12.232Z,24.31
2019-05-02T09:14:42.533Z,24.10
2019-05-02T09:17:16.679Z,24.45
2019-05-02T09:20:00.282Z,24.45
2019-05-02T09:22:25.265Z,24.23
2019-05-02T09:24:58.811Z,24.21
2019-05-02T09:27:32.156Z,24.04
2019-05-02T09:30:12.090Z,24.04
2019-05-02T09:32:45.030Z,24.03
2019-05-02T09:35:18.456Z,24.03
2019-05-02T09:37:52.331Z,24.01
2019-05-02T09:40:25.965Z,23.99
2019-05-02T09:43:02.110Z,23.99
2019-05-02T09:45:37.871Z,24.01
2019-05-02T09:48:12.701Z,23.94
2019-05-02T09:50:46.919Z,24.02
2019-05-02T09:53:25.249Z,23.93
2019-05-02T09:55:57.940Z,23.95
2019-05-02T09:58:32.033Z,23.92
2019-05-02T10:01:05.838Z,23.91
2019-05-02T10:03:39.211Z,23.88
2019-05-02T10:06:17.916Z,23.98
2019-05-02T10:08:47.861Z,23.88
2019-05-02T10:11:26.081Z,23.87
2019-05-02T10:13:57.425Z,23.91
2019-05-02T10:16:31.932Z,23.73
2019-05-02T10:19:09.531Z,23.77
2019-05-02T10:21:42.194Z,23.81
2019-05-02T10:24:15.619Z,23.74
2019-05-02T10:26:49.304Z,23.83
2019-05-02T10:29:28.132Z,23.74
2019-05-02T10:31:57.785Z,23.81
2019-05-02T10:34:32.998Z,23.78
2019-05-02T10:37:06.258Z,23.76
2019-05-02T10:39:39.754Z,23.75
2019-05-02T10:42:13.232Z,23.77
2019-05-02T10:44:46.763Z,23.71
2019-05-02T10:47:22.143Z,23.74
2019-05-02T10:49:55.811Z,23.78
2019-05-02T10:52:30.092Z,23.84
2019-05-02T10:55:06.105Z,23.74
2019-05-02T10:57:39.691Z,23.73
2019-05-02T11:00:15.202Z,23.71
2019-05-02T11:02:48.801Z,23.75
2019-05-02T11:05:26.283Z,23.74
2019-05-02T11:08:04.821Z,23.87
2019-05-02T11:10:32.411Z,23.72
2019-05-02T11:13:05.814Z,23.77
2019-05-02T11:15:39.149Z,23.71
2019-05-02T11:18:12.720Z,23.78
2019-05-02T11:20:46.141Z,23.72
2019-05-02T11:23:19.482Z,23.76
2019-05-02T11:25:52.904Z,23.65
2019-05-02T11:28:26.474Z,23.71
2019-05-02T11:31:04.968Z,23.64
2019-05-02T11:33:35.551Z,23.69
2019-05-02T11:36:08.842Z,23.68
2019-05-02T11:38:45.513Z,23.75
2019-05-02T11:41:17.226Z,23.69
2019-05-02T11:43:54.116Z,23.69
2019-05-02T11:46:25.817Z,23.61
2019-05-02T11:49:02.401Z,23.67
2019-05-02T11:51:36.276Z,23.57
2019-05-02T11:54:09.689Z,23.56
2019-05-02T11:56:48.918Z,23.57
2019-05-02T11:59:22.633Z,23.56
2019-05-02T12:01:59.726Z,23.64
2019-05-02T12:04:28.170Z,23.61
2019-05-02T12:07:04.947Z,23.55
2019-05-02T12:09:37.109Z,23.58
2019-05-02T12:12:12.362Z,23.66
2019-05-02T12:14:45.922Z,23.59
2019-05-02T12:17:21.777Z,23.59
2019-05-02T12:19:55.278Z,23.60
2019-05-02T12:22:29.147Z,23.59
2019-05-02T12:25:03.057Z,23.61
2019-05-02T12:27:36.685Z,23.55
2019-05-02T12:30:11.800Z,23.51
2019-05-02T12:32:45.586Z,23.59
2019-05-02T12:35:19.000Z,23.50
2019-05-02T12:37:55.357Z,23.52
2019-05-02T12:40:28.840Z,23.57
2019-05-02T12:43:02.864Z,23.41
2019-05-02T12:45:36.350Z,23.55
2019-05-02T12:48:12.908Z,23.53
2019-05-02T12:50:45.950Z,23.53
2019-05-02T12:53:21.785Z,23.46
2019-05-02T12:55:54.731Z,23.52
2019-05-02T12:58:28.151Z,23.44
2019-05-02T13:01:02.827Z,23.45
2019-05-02T13:03:36.832Z,23.45
2019-05-02T13:06:12.371Z,23.34
2019-05-02T13:08:45.889Z,23.41
2019-05-02T13:11:22.274Z,23.41
2019-05-02T13:13:55.729Z,23.49
2019-05-02T13:16:29.177Z,23.54
2019-05-02T13:19:06.067Z,23.46
2019-05-02T13:21:42.215Z,23.40
2019-05-02T13:24:16.299Z,23.50
2019-05-02T13:26:53.923Z,23.45
2019-05-02T13:29:23.557Z,23.49
2019-05-02T13:31:57.010Z,23.55
2019-05-02T13:34:31.975Z,23.56
2019-05-02T13:37:05.564Z,23.51
2019-05-02T13:39:38.888Z,23.89
2019-05-02T13:42:12.599Z,23.73
2019-05-02T13:44:45.929Z,23.70
2019-05-02T13:47:19.228Z,23.72
2019-05-02T13:49:56.389Z,23.73
2019-05-02T13:52:27.794Z,23.70
2019-05-02T13:55:01.787Z,23.71
2019-05-02T13:57:41.907Z,23.77
2019-05-02T14:00:10.327Z,23.77
2019-05-02T14:02:43.857Z,23.71
2019-05-02T14:05:18.791Z,23.76
2019-05-02T14:07:57.004Z,23.73
2019-05-02T14:10:32.201Z,23.70
2019-05-02T14:13:03.373Z,23.64
2019-05-02T14:15:37.214Z,23.66
2019-05-02T14:18:12.396Z,23.68
2019-05-02T14:20:46.826Z,23.59
2019-05-02T14:23:22.160Z,23.58
2019-05-02T14:25:57.123Z,23.63
2019-05-02T14:28:32.263Z,23.57
2019-05-02T14:31:05.638Z,23.55
2019-05-02T14:33:39.018Z,23.54
2019-05-02T14:36:12.653Z,23.61
2019-05-02T14:38:46.016Z,23.68
2019-05-02T14:41:21.803Z,23.68
2019-05-02T14:43:55.334Z,23.66
2019-05-02T14:46:33.694Z,23.66
2019-05-02T14:49:03.670Z,23.63
2019-05-02T14:51:38.566Z,23.68
2019-05-02T14:54:12.126Z,23.68
2019-05-02T14:56:47.714Z,23.69
2019-05-02T14:59:22.600Z,23.67
2019-05-02T15:01:58.009Z,23.69
2019-05-02T15:04:32.236Z,23.74
2019-05-02T15:07:05.625Z,23.72
2019-05-02T15:09:39.300Z,23.71
2019-05-02T15:12:15.987Z,23.74
2019-05-02T15:14:49.799Z,23.79
2019-05-02T15:17:22.822Z,23.82
2019-05-02T15:19:56.162Z,23.80
2019-05-02T15:22:35.781Z,23.87
2019-05-02T15:25:07.938Z,23.84
2019-05-02T15:27:43.065Z,23.81
2019-05-02T15:30:16.536Z,23.84
2019-05-02T15:32:49.837Z,23.87
2019-05-02T15:35:26.846Z,23.91
2019-05-02T15:38:05.157Z,23.89
2019-05-02T15:40:47.329Z,23.93
2019-05-02T15:43:12.468Z,23.87
2019-05-02T15:45:48.006Z,23.84
2019-05-02T15:48:27.053Z,23.89
2019-05-02T15:51:00.252Z,23.85
2019-05-02T15:53:32.477Z,23.91
2019-05-02T15:56:15.770Z,23.83
2019-05-02T15:58:42.605Z,23.77
2019-05-02T16:01:17.048Z,23.84
2019-05-02T16:03:52.130Z,23.91
2019-05-02T16:06:30.798Z,24.01
2019-05-02T16:09:02.441Z,24.00
2019-05-02T16:11:37.685Z,23.91
2019-05-02T16:14:12.782Z,23.96
2019-05-02T16:16:46.231Z,24.01
2019-05-02T16:19:24.850Z,24.05
2019-05-02T16:21:54.920Z,24.09
2019-05-02T16:24:28.441Z,24.14
2019-05-02T16:27:02.641Z,24.17
2019-05-02T16:29:36.136Z,24.32
2019-05-02T16:32:09.451Z,24.18
2019-05-02T16:34:43.512Z,24.17
2019-05-02T16:37:16.937Z,24.15
2019-05-02T16:39:51.221Z,24.12
2019-05-02T16:42:24.555Z,24.08
2019-05-02T16:44:57.902Z,23.94
2019-05-02T16:47:32.588Z,24.26
2019-05-02T16:50:07.448Z,24.26
2019-05-02T16:52:43.711Z,24.12
2019-05-02T16:55:21.006Z,24.13
2019-05-02T16:57:56.697Z,24.11
2019-05-02T17:00:28.208Z,24.04
2019-05-02T17:03:02.012Z,24.02
2019-05-02T17:05:39.294Z,24.06
2019-05-02T17:08:18.659Z,24.01
2019-05-02T17:10:47.197Z,23.96
2019-05-02T17:13:21.793Z,24.01
2019-05-02T17:15:55.439Z,23.94
2019-05-02T17:18:28.742Z,23.97
2019-05-02T17:21:02.306Z,24.36
2019-05-02T17:23:37.474Z,24.15
2019-05-02T17:26:12.286Z,24.09
2019-05-02T17:28:47.369Z,24.07
2019-05-02T17:31:23.035Z,24.02
2019-05-02T17:33:56.535Z,23.94
2019-05-02T17:36:30.635Z,23.98
2019-05-02T17:39:08.326Z,23.99
2019-05-02T17:41:45.658Z,23.92
2019-05-02T17:44:22.132Z,23.94
2019-05-02T17:46:58.444Z,23.89
2019-05-02T17:49:31.835Z,23.89
2019-05-02T17:52:05.752Z,24.23
2019-05-02T17:54:39.392Z,24.08
2019-05-02T17:57:12.729Z,23.98
2019-05-02T17:59:46.104Z,23.86
2019-05-02T18:02:19.726Z,23.88
2019-05-02T18:04:55.781Z,23.81
2019-05-02T18:07:32.142Z,23.76
2019-05-02T18:10:16.817Z,23.73
2019-05-02T18:12:42.935Z,23.73
2019-05-02T18:15:16.357Z,23.70
2019-05-02T18:17:49.713Z,23.68
2019-05-02T18:20:25.322Z,23.68
2019-05-02T18:23:00.009Z,23.64
2019-05-02T18:25:33.349Z,23.60
2019-05-02T18:28:06.727Z,23.59
2019-05-02T18:30:41.752Z,23.61
2019-05-02T18:33:15.348Z,23.65
2019-05-02T18:35:50.279Z,23.69
2019-05-02T18:38:24.625Z,23.56
2019-05-02T18:41:00.251Z,23.51
2019-05-02T18:43:40.884Z,23.47
2019-05-02T18:46:12.765Z,23.51
2019-05-02T18:48:49.131Z,23.52
2019-05-02T18:51:21.839Z,23.52
2019-05-02T18:53:58.030Z,23.53
2019-05-02T18:56:34.012Z,23.49
2019-05-02T18:59:05.905Z,23.48
2019-05-02T19:01:39.293Z,23.49
2019-05-02T19:04:13.206Z,23.45
2019-05-02T19:06:46.683Z,23.44
2019-05-02T19:09:24.989Z,23.36
2019-05-02T19:12:04.980Z,23.40
2019-05-02T19:14:30.160Z,23.39
2019-05-02T19:17:07.180Z,23.43
2019-05-02T19:19:38.515Z,23.37
2019-05-02T19:22:13.255Z,23.37
2019-05-02T19:24:46.896Z,23.33
2019-05-02T19:27:20.999Z,23.36
2019-05-02T19:29:54.840Z,23.45
2019-05-02T19:32:28.547Z,23.38
2019-05-02T19:35:06.962Z,23.34
2019-05-02T19:37:46.032Z,23.30
2019-05-02T19:40:14.896Z,23.38
2019-05-02T19:42:48.385Z,23.27
2019-05-02T19:45:21.894Z,23.26
2019-05-02T19:47:57.657Z,23.22
2019-05-02T19:50:39.305Z,23.49
2019-05-02T19:53:14.903Z,23.31
2019-05-02T19:55:44.292Z,23.20
2019-05-02T19:58:17.665Z,23.26
2019-05-02T20:00:52.609Z,23.26
2019-05-02T20:03:26.328Z,23.26
2019-05-02T20:06:02.287Z,23.22
2019-05-02T20:08:35.562Z,23.27
2019-05-02T20:11:10.014Z,23.23
2019-05-02T20:13:44.827Z,23.24
2019-05-02T20:16:22.490Z,23.18
2019-05-02T20:18:55.986Z,23.08
2019-05-02T20:21:29.352Z,22.66
2019-05-02T20:24:04.296Z,23.07
2019-05-02T20:26:39.343Z,23.07
2019-05-02T20:29:12.740Z,22.68
2019-05-02T20:31:46.063Z,23.01
2019-05-02T20:34:19.845Z,22.97
2019-05-02T20:36:53.172Z,22.94
2019-05-02T20:39:26.355Z,22.91
2019-05-02T20:41:59.688Z,22.90
2019-05-02T20:44:33.053Z,22.84
2019-05-02T20:47:06.394Z,22.86
2019-05-02T20:49:39.770Z,22.82
2019-05-02T20:52:13.114Z,22.77
2019-05-02T20:54:47.141Z,22.75
2019-05-02T20:57:21.496Z,22.71
2019-05-02T20:59:55.166Z,22.71
2019-05-02T21:02:28.509Z,22.67
2019-05-02T21:05:02.736Z,22.72
2019-05-02T21:07:36.258Z,22.73
2019-05-02T21:10:09.673Z,22.68
2019-05-02T21:12:43.048Z,22.62
2019-05-02T21:15:18.221Z,22.60
2019-05-02T21:17:51.454Z,22.56
2019-05-02T21:20:25.020Z,22.58
2019-05-02T21:22:58.353Z,22.64
2019-05-02T21:25:32.554Z,22.71
2019-05-02T21:28:06.355Z,22.74
2019-05-02T21:30:41.563Z,22.72
2019-05-02T21:33:35.559Z,22.68
2019-05-02T21:36:08.917Z,22.62
2019-05-02T21:38:42.888Z,22.66
2019-05-02T21:41:16.555Z,22.62
2019-05-02T21:43:51.694Z,22.63
2019-05-02T21:46:25.175Z,22.59
2019-05-02T21:48:58.569Z,22.56
2019-05-02T21:51:32.056Z,22.53
2019-05-02T21:54:05.683Z,22.58
2019-05-02T21:56:39.033Z,22.57
2019-05-02T21:59:12.489Z,22.51
2019-05-02T22:01:46.417Z,22.47
2019-05-02T22:04:19.779Z,22.47
2019-05-02T22:06:53.200Z,22.47
2019-05-02T22:09:26.742Z,22.49
2019-05-02T22:12:00.567Z,22.07
2019-05-02T22:14:33.921Z,22.55
2019-05-02T22:17:08.917Z,22.46
2019-05-02T22:19:42.987Z,22.42
2019-05-02T22:22:16.340Z,22.44
2019-05-02T22:24:52.665Z,22.55
2019-05-02T22:27:25.679Z,22.45
2019-05-02T22:29:59.065Z,22.45
2019-05-02T22:32:32.502Z,22.41
2019-05-02T22:35:06.216Z,22.35
2019-05-02T22:37:39.693Z,22.41
2019-05-02T22:40:14.211Z,22.37
2019-05-02T22:42:47.669Z,22.36
2019-05-02T22:45:21.773Z,22.41
2019-05-02T22:47:55.486Z,22.43
2019-05-02T22:50:28.866Z,22.33
2019-05-02T22:53:02.411Z,22.29
2019-05-02T22:55:36.066Z,22.24
2019-05-02T22:58:11.085Z,22.28
2019-05-02T23:00:44.535Z,22.24
2019-05-02T23:03:17.911Z,22.15
2019-05-02T23:05:52.629Z,22.12
2019-05-02T23:08:26.275Z,22.08
2019-05-02T23:10:59.643Z,22.08
2019-05-02T23:13:32.981Z,22.05
2019-05-02T23:16:06.516Z,22.02
2019-05-02T23:18:39.908Z,21.99
2019-05-02T23:21:13.270Z,21.99
2019-05-02T23:23:47.365Z,21.98
2019-05-02T23:26:22.431Z,21.92
2019-05-02T23:28:56.041Z,21.94
2019-05-02T23:31:29.396Z,21.96
2019-05-02T23:34:02.736Z,21.90
2019-05-02T23:36:36.117Z,21.89
2019-05-02T23:39:09.500Z,21.86
2019-05-02T23:41:42.884Z,21.87
2019-05-02T23:44:16.213Z,21.82
2019-05-02T23:46:51.510Z,21.80
2019-05-02T23:49:24.775Z,21.79
2019-05-02T23:51:59.106Z,21.80
2019-05-02T23:54:32.560Z,21.75
2019-05-02T23:57:06.021Z,21.76
2019-05-02T23:59:39.372Z,21.70
